Terminal Aerodrome Forecast
Issued by NWS Cleveland, OH

Home | Current Version | Previous Version | Graphics & Text | Print | Product List | Glossary On
Versions: 1 2 3 4 5 6 7 8 9 10 11 12 13 14 15 16 17 18 19 20 21
000
FTUS41 KCLE 160300 AAA
TAFMFD
TAF AMD
KMFD 160302Z 1603/1624 31005KT 4SM -RA SCT009 OVC025
      TEMPO 1603/1606 2SM RA BR BKN008 OVC015
     FM160600 33004KT 3SM BR BKN006 OVC012
      TEMPO 1606/1610 2SM BR OVC004
     FM161500 33004KT 5SM BR OVC015
     FM161900 33004KT P6SM BKN022=

USA.gov is the U.S. government's official web portal to all federal, state and local government web resources and services.